Etusivu
METAR-TAF:

METAR-TAF

Lentoasemat :

Don Muangin kansainvälinen lentoasema

Bangkok, Thaimaa

Leveyspiiri: 13-54-45N, Pituuspiiri: 100-36-24E, korkeus merenpinnasta: 4 m

Tämänhetkinen sää

Tämä raportti tehtiin 22 minuuttia sitten, kello 08.00 UTC
Tuuli 5 kn eri suunnista
Lämpötila 40°C
Kosteus 28%
Ilmanpaine 1004 hPa
Näkyvyys 10 km tai enemmän
Muutamia pilviä 2000 ft:n korkeudessa

METAR: VTBD 210800Z VRB05KT 9999 FEW020 40/18 Q1004 NOSIG

Aika: 15:22 (08:22 UTC)

Sääennuste

Tämä raportti tehtiin 3 tuntia ja 22 minuuttia sitten, kello 05.00 UTC
Ennuste voimassa 21. päivästä klo 06 UTC - 22. päivään klo 12 UTC
Tuuli 8 kn lännestä/lounaasta
Näkyvyys 10 km tai enemmän
Muutamia pilviä 2000 ft:n korkeudessa
Tulossa
21. päivästä klo 09 UTC - 21. päivään klo 11 UTC
Tuuli 10 kn etelästä

TAF: VTBD 210500Z 2106/2212 24008KT 9999 FEW020 BECMG 2109/2111 18010KT

Säähavainnot ja -ennusteet yli 4000 lentoasemalta (METAR- ja TAF-raportit).

Käytössä olevat sääasemat on merkitty karttaan keltaisilla ja punaisilla pisteillä.

Aseta hiiri pisteen päälle nähdäksesi sääaseman nimen.

Klikkaa sitten nähdäksesi säähavainnot ja -ennusteet.

Kartan vaihtaminen: klikkaa mustalla rastilla varustettuja vihreitä pisteitä, niin voit zoomata sisään; viivalla varustettua vihreää pistettä, niin voit zoomata ulos tai vihreitä nuolia, niin pääset viereisille kartoille.


METAR-TAF: